Latest Weather Observations for Esperance

IDW60801

Issued at 8:35 pm WST Thursday 27 November 2014 (issued every 30 minutes, with the page automatically refreshed every 10 minutes)

About weather observations | Map of weather stations | Latest weather observations for WA | Other Formats
Station Details ID: 009789 Name: ESPERANCE Lat: -33.83 Lon: 121.89 Height: 25.0 m
Data from the previous 72 hours. | See also: Recent months at Esperance
Date/Time
WST
Temp
°C
App
Temp
°C
Dew
Point
Rel
Hum
%
Delta-T
°C
Wind Press
QNH
hPa
Press
MSL
hPa
Rain
since 9 am
mm
Dir
 
Spd
km/h
Gust
km/h
Spd
kts
Gust
kts
27/08:30pm 20.0 18.0 13.9 68 3.5 E 17 24 9 13 1011.9 1011.9 0.8
27/08:00pm 20.2 19.1 14.2 68 3.5 E 13 20 7 11 1012.3 1012.3 0.8
27/07:30pm 20.9 19.3 14.0 64 4.0 E 15 22 8 12 1012.2 1012.2 0.8
27/07:00pm 21.5 19.4 13.7 61 4.5 E 17 28 9 15 1012.6 1012.6 0.8
27/06:30pm 21.4 20.3 15.3 68 3.6 E 15 24 8 13 1012.2 1012.2 0.8
27/06:00pm 21.5 20.1 15.5 68 3.6 E 17 30 9 16 1012.1 1012.1 0.8
27/05:30pm 22.1 20.5 16.1 69 3.6 ESE 19 24 10 13 1012.3 1012.3 0.8
27/05:00pm 21.8 20.2 16.5 72 3.2 ESE 20 30 11 16 1012.2 1012.2 0.8
27/04:30pm 22.4 21.6 17.0 71 3.3 ESE 17 24 9 13 1012.1 1012.1 0.8
27/04:00pm 22.3 21.8 16.9 71 3.3 SE 15 20 8 11 1012.4 1012.4 0.8
27/03:30pm 22.2 22.1 17.0 72 3.2 SE 13 15 7 8 1013.0 1013.0 0.8
27/03:00pm 22.1 22.7 17.7 76 2.7 ESE 11 15 6 8 1013.4 1013.4 0.8
27/02:30pm 21.1 20.4 17.4 79 2.3 ESE 17 24 9 13 1013.5 1013.5 0.8
27/02:00pm 21.1 19.8 16.7 76 2.7 SE 19 24 10 13 1013.5 1013.5 0.8
27/01:30pm 20.6 19.3 13.8 65 3.9 SE 13 19 7 10 1013.9 1013.9 0.8
27/01:00pm 21.6 21.7 14.0 62 4.4 E 6 11 3 6 1014.6 1014.6 0.8
27/12:30pm 20.9 21.2 14.6 67 3.7 E 6 9 3 5 1015.0 1015.0 0.8
27/12:00pm 20.6 21.6 16.3 76 2.6 NNE 6 9 3 5 1015.7 1015.6 0.4
27/11:30am 21.0 20.5 13.9 64 4.1 NNE 9 15 5 8 1016.4 1016.3 0.0
27/11:00am 22.6 19.2 10.6 46 6.6 NNE 19 26 10 14 1016.2 1016.1 0.0
27/10:30am 23.6 19.4 9.6 41 7.6 NNE 22 32 12 17 1016.5 1016.4 0.0
27/10:00am 23.4 20.0 10.5 44 7.1 NNE 19 26 10 14 1016.5 1016.4 0.0
27/09:30am 22.8 18.8 10.6 46 6.7 NNE 22 33 12 18 1016.6 1016.5 0.0
27/09:00am 22.2 19.4 11.2 49 6.1 NE 17 28 9 15 1016.8 1016.7 0.0
27/08:30am 20.6 17.1 10.9 53 5.3 NE 20 32 11 17 1016.9 1016.8 0.0
27/08:00am 19.3 15.8 11.0 58 4.5 NE 20 28 11 15 1017.3 1017.2 0.0
27/07:30am 18.6 15.5 11.7 64 3.8 NE 19 28 10 15 1017.4 1017.3 0.0
27/07:00am 17.9 14.6 11.7 67 3.4 NNE 20 30 11 16 1017.8 1017.7 0.0
27/06:30am 17.5 14.5 12.0 70 3.0 NNE 19 32 10 17 1017.8 1017.7 0.0
27/06:00am 16.8 14.6 12.2 74 2.5 NNE 15 20 8 11 1017.9 1017.8 0.0
27/05:30am 16.2 14.4 12.2 77 2.2 NNE 13 20 7 11 1018.2 1018.1 0.0
27/05:00am 15.6 13.0 12.1 80 1.9 NNE 17 26 9 14 1018.1 1018.0 0.0
27/04:30am 15.4 13.1 11.9 79 1.9 NE 15 22 8 12 1017.1 1017.0 0.0
27/04:00am 15.5 12.9 12.0 79 1.9 NE 17 28 9 15 1016.5 1016.4 0.0
27/03:30am 15.7 12.7 12.0 78 2.0 NE 19 28 10 15 1016.3 1016.2 0.0
27/03:00am 15.7 13.5 12.0 78 2.0 ENE 15 28 8 15 1015.9 1015.8 0.0
27/02:30am 15.7 13.1 12.0 78 2.0 ENE 17 28 9 15 1015.9 1015.8 0.0
27/02:00am 15.8 13.3 12.3 80 1.9 ENE 17 30 9 16 1016.1 1016.0 0.0
27/01:30am 15.9 13.4 12.2 78 2.0 NE 17 22 9 12 1016.3 1016.2 0.0
27/01:00am 16.0 13.5 12.2 78 2.1 NE 17 28 9 15 1016.6 1016.5 0.0
27/12:30am 15.8 13.6 12.1 78 2.0 ENE 15 22 8 12 1016.5 1016.4 0.0
27/12:00am 16.0 13.8 12.0 77 2.2 ENE 15 24 8 13 1016.8 1016.7 0.0
 
Date/Time
WST
Temp
°C
App
Temp
°C
Dew
Point
Rel
Hum
%
Delta-T
°C
Wind Press
QNH
hPa
Press
MSL
hPa
Rain
since 9 am
mm
Dir
 
Spd
km/h
Gust
km/h
Spd
kts
Gust
kts
26/11:30pm 16.3 13.7 11.9 75 2.4 ENE 17 28 9 15 1017.2 1017.1 0.0
26/11:00pm 16.4 13.4 11.8 74 2.5 ENE 19 32 10 17 1017.4 1017.3 0.0
26/10:30pm 16.5 13.7 11.5 72 2.7 ENE 17 35 9 19 1017.7 1017.6 0.0
26/10:00pm 16.7 13.4 11.5 71 2.8 ENE 20 33 11 18 1017.8 1017.7 0.0
26/09:30pm 17.1 13.3 11.2 68 3.2 ENE 22 39 12 21 1018.0 1017.9 0.0
26/09:00pm 17.6 13.8 11.3 66 3.4 ENE 22 33 12 18 1018.0 1017.9 0.0
26/08:30pm 18.3 14.5 11.3 63 3.8 NE 22 35 12 19 1017.7 1017.6 0.0
26/08:00pm 19.1 15.9 11.4 61 4.2 E 19 35 10 19 1017.3 1017.2 0.0
26/07:30pm 19.7 16.3 11.3 58 4.6 E 20 32 11 17 1017.0 1016.9 0.0
26/07:00pm 19.6 17.1 13.5 68 3.5 ESE 19 30 10 16 1016.9 1016.8 0.0
26/06:30pm 20.0 16.6 13.7 67 3.6 ESE 24 35 13 19 1016.6 1016.5 0.0
26/06:00pm 20.5 16.5 14.1 66 3.7 ESE 28 39 15 21 1016.6 1016.5 0.0
26/05:30pm 21.5 17.5 14.1 62 4.3 ESE 28 43 15 23 1016.3 1016.2 0.0
26/05:00pm 21.7 17.5 14.7 64 4.1 ESE 30 43 16 23 1016.1 1016.0 0.0
26/04:30pm 22.1 17.4 14.4 61 4.5 ESE 32 44 17 24 1016.3 1016.2 0.0
26/04:00pm 21.8 17.0 14.5 63 4.3 ESE 33 46 18 25 1016.3 1016.2 0.0
26/03:30pm 22.1 17.5 14.6 62 4.4 ESE 32 48 17 26 1016.4 1016.3 0.0
26/03:00pm 22.2 17.6 14.5 61 4.5 ESE 32 46 17 25 1016.7 1016.6 0.0
26/02:49pm 22.4 17.8 14.6 61 4.6 SE 32 50 17 27 1016.9 1016.8 0.0
26/02:30pm 22.7 18.5 14.7 60 4.7 SE 30 41 16 22 1017.1 1017.0 0.0
26/02:00pm 22.9 18.0 13.8 56 5.3 ESE 32 41 17 22 1017.5 1017.4 0.0
26/01:30pm 22.8 18.4 14.1 58 5.1 ESE 30 39 16 21 1017.9 1017.8 0.0
26/01:00pm 23.2 18.3 13.8 55 5.5 ESE 32 44 17 24 1018.0 1017.9 0.0
26/12:30pm 21.9 16.9 13.4 58 4.9 ESE 32 46 17 25 1018.5 1018.4 0.0
26/12:00pm 22.8 18.3 13.7 56 5.3 ESE 30 41 16 22 1019.0 1018.9 0.0
26/11:30am 25.9 23.4 9.7 36 8.9 E 13 24 7 13 1019.5 1019.4 0.0
26/11:00am 24.5 20.6 9.4 38 8.2 ENE 20 28 11 15 1020.2 1020.1 0.0
26/10:30am 23.8 20.5 9.6 40 7.7 E 17 30 9 16 1020.8 1020.7 0.0
26/10:00am 23.5 20.6 9.7 41 7.5 ENE 15 28 8 15 1021.2 1021.1 0.0
26/09:30am 22.5 19.4 10.2 45 6.7 E 17 28 9 15 1021.6 1021.5 0.0
26/09:00am 21.7 18.6 10.3 48 6.2 E 17 20 9 11 1021.8 1021.7 0.0
26/08:30am 20.3 17.3 10.5 53 5.3 NE 17 28 9 15 1022.0 1021.9 0.0
26/08:00am 19.4 16.0 10.5 56 4.8 ENE 19 30 10 16 1022.1 1022.0 0.0
26/07:30am 18.3 15.4 10.9 62 4.0 NE 17 30 9 16 1022.5 1022.4 0.0
26/07:00am 16.9 15.2 11.1 68 3.1 ENE 11 17 6 9 1022.4 1022.3 0.0
26/06:30am 16.1 15.1 11.0 72 2.7 ENE 7 15 4 8 1022.6 1022.5 0.0
26/06:00am 14.2 12.3 10.6 79 1.9 E 11 17 6 9 1022.4 1022.3 0.0
26/05:30am 12.9 10.9 10.0 82 1.5 E 11 17 6 9 1022.4 1022.3 0.0
26/05:00am 12.0 9.5 9.6 85 1.2 ENE 13 17 7 9 1022.1 1022.0 0.0
26/04:30am 11.9 9.4 9.7 86 1.1 E 13 20 7 11 1021.8 1021.7 0.0
26/04:00am 11.7 10.0 9.9 89 0.9 ENE 9 13 5 7 1021.8 1021.7 0.0
26/03:30am 11.9 10.2 9.9 87 1.0 E 9 15 5 8 1021.7 1021.6 0.0
26/03:00am 12.2 10.2 10.0 86 1.1 E 11 15 6 8 1021.7 1021.6 0.0
26/02:30am 12.4 10.4 10.1 86 1.2 E 11 17 6 9 1021.4 1021.3 0.0
26/02:00am 12.5 10.8 10.0 85 1.3 E 9 15 5 8 1021.6 1021.5 0.0
26/01:30am 12.8 11.1 9.9 82 1.5 E 9 13 5 7 1021.8 1021.7 0.0
26/01:00am 12.9 11.2 10.0 82 1.5 E 9 13 5 7 1022.0 1021.9 0.0
26/12:30am 13.2 11.5 9.9 80 1.7 E 9 13 5 7 1022.1 1022.0 0.0
26/12:00am 13.6 11.9 9.9 78 1.9 E 9 15 5 8 1022.1 1022.0 0.0
 
Date/Time
WST
Temp
°C
App
Temp
°C
Dew
Point
Rel
Hum
%
Delta-T
°C
Wind Press
QNH
hPa
Press
MSL
hPa
Rain
since 9 am
mm
Dir
 
Spd
km/h
Gust
km/h
Spd
kts
Gust
kts
25/11:30pm 13.8 11.7 9.9 77 2.0 ENE 11 20 6 11 1022.3 1022.2 0.0
25/11:00pm 14.2 11.7 9.7 74 2.3 E 13 19 7 10 1022.4 1022.3 0.0
25/10:30pm 14.6 12.1 9.7 72 2.5 E 13 20 7 11 1022.6 1022.5 0.0
25/10:00pm 14.6 12.1 9.7 72 2.5 ENE 13 20 7 11 1022.6 1022.5 0.0
25/09:30pm 14.9 12.1 10.1 73 2.5 E 15 20 8 11 1022.5 1022.4 0.0
25/09:00pm 15.3 12.6 10.3 72 2.6 E 15 22 8 12 1022.6 1022.5 0.0
25/08:30pm 15.9 12.5 10.4 70 2.9 E 19 26 10 14 1022.7 1022.6 0.0
25/08:00pm 16.2 12.8 10.7 70 2.9 E 19 33 10 18 1022.7 1022.6 0.0
25/07:30pm 16.6 12.8 11.0 69 3.0 E 22 32 12 17 1022.7 1022.6 0.0
25/07:00pm 16.8 12.6 11.0 68 3.1 ESE 24 39 13 21 1022.6 1022.5 0.0
25/06:30pm 17.3 12.0 11.2 67 3.3 ESE 30 43 16 23 1022.4 1022.3 0.0
25/06:00pm 17.7 13.1 11.2 65 3.5 ESE 26 39 14 21 1022.1 1022.0 0.0
25/05:30pm 18.1 13.1 10.9 63 3.9 ESE 28 39 15 21 1021.8 1021.7 0.0
25/05:00pm 18.6 13.7 11.2 62 4.0 SE 28 41 15 22 1021.4 1021.3 0.0
25/04:30pm 19.4 14.6 11.6 60 4.3 SE 28 44 15 24 1021.3 1021.2 0.0
25/04:00pm 19.8 14.6 11.6 59 4.5 SE 30 43 16 23 1021.5 1021.4 0.0
25/03:30pm 19.3 13.8 11.7 61 4.2 SE 32 41 17 22 1021.7 1021.6 0.0
25/03:00pm 19.3 13.7 11.4 60 4.3 SE 32 39 17 21 1021.7 1021.6 0.0
25/02:30pm 18.8 13.3 10.6 59 4.4 SE 30 43 16 23 1021.8 1021.7 0.0
25/02:00pm 19.5 13.4 9.9 54 5.1 SE 32 39 17 21 1021.6 1021.5 0.0
25/01:30pm 19.2 13.3 9.1 52 5.3 SE 30 41 16 22 1022.1 1022.0 0.0
25/01:00pm 19.6 14.3 9.8 53 5.2 SSE 28 39 15 21 1022.2 1022.1 0.0
25/12:30pm 19.4 13.3 9.6 53 5.2 SSE 32 41 17 22 1022.6 1022.5 0.0
25/12:00pm 20.3 15.1 10.3 52 5.4 SE 28 37 15 20 1022.9 1022.8 0.0
25/11:30am 19.4 14.0 9.6 53 5.2 SSE 28 35 15 19 1023.1 1023.0 0.0
25/11:00am 20.2 15.8 9.0 48 5.9 SSE 22 30 12 16 1023.5 1023.4 0.0
25/10:30am 20.0 16.0 8.2 46 6.1 SSE 19 26 10 14 1023.6 1023.5 0.0
25/10:00am 20.0 16.0 8.4 47 6.0 SE 19 24 10 13 1023.9 1023.8 0.0
25/09:30am 19.2 15.2 8.1 48 5.7 SSE 19 24 10 13 1024.3 1024.2 0.0
25/09:00am 19.9 17.1 8.6 48 5.9 E 13 20 7 11 1024.4 1024.3 0.0
25/08:30am 19.1 16.6 8.0 48 5.7 NE 11 19 6 10 1024.5 1024.4 0.0
25/08:00am 18.0 14.6 7.7 51 5.2 E 15 20 8 11 1024.7 1024.6 0.0
25/07:30am 17.2 13.9 8.1 55 4.6 NE 15 20 8 11 1025.0 1024.9 0.0
25/07:06am 16.4 14.4 8.8 60 3.9 NE 9 17 5 9 1025.0 1024.9 0.0
25/07:00am 15.7 13.2 8.1 60 3.8 NE 11 17 6 9 1024.9 1024.8 0.0
25/06:30am 13.4 11.2 7.9 69 2.7 NNE 9 15 5 8 1025.0 1024.9 0.0
25/06:00am 11.9 9.6 7.5 74 2.1 NNE 9 11 5 6 1024.8 1024.7 0.0
25/05:30am 11.2 8.9 7.4 77 1.8 N 9 11 5 6 1024.6 1024.5 0.0
25/05:00am 10.5 8.1 7.1 79 1.6 NNE 9 13 5 7 1024.4 1024.3 0.0
25/04:30am 10.4 8.0 7.2 80 1.5 NNE 9 11 5 6 1024.1 1024.0 0.0
25/04:00am 10.1 8.3 7.8 86 1.1 N 7 9 4 5 1023.9 1023.8 0.0
25/03:30am 10.4 8.2 7.9 84 1.2 N 9 13 5 7 1023.8 1023.7 0.0
25/03:00am 10.7 8.9 7.8 82 1.4 N 7 9 4 5 1023.8 1023.7 0.0
25/02:30am 11.1 8.8 7.6 79 1.7 NNE 9 13 5 7 1023.7 1023.6 0.0
25/02:00am 11.3 8.7 7.6 78 1.8 NNE 11 13 6 7 1023.7 1023.6 0.0
25/01:30am 11.2 8.6 7.7 79 1.7 NNE 11 15 6 8 1023.9 1023.8 0.0
25/01:00am 11.4 8.9 8.1 80 1.6 N 11 15 6 8 1024.0 1023.9 0.0
25/12:30am 11.6 9.5 8.1 79 1.7 NNE 9 13 5 7 1024.0 1023.9 0.0
25/12:00am 11.9 10.3 8.7 81 1.6 NNE 7 9 4 5 1024.3 1024.2 0.0
 
Date/Time
WST
Temp
°C
App
Temp
°C
Dew
Point
Rel
Hum
%
Delta-T
°C
Wind Press
QNH
hPa
Press
MSL
hPa
Rain
since 9 am
mm
Dir
 
Spd
km/h
Gust
km/h
Spd
kts
Gust
kts
24/11:30pm 12.0 10.5 9.2 83 1.4 NNE 7 9 4 5 1024.6 1024.5 0.0
24/11:00pm 12.7 11.0 8.2 74 2.2 ENE 7 9 4 5 1024.9 1024.8 0.0
24/10:30pm 12.4 10.3 8.3 76 2.0 ENE 9 11 5 6 1025.0 1024.9 0.0
24/10:00pm 13.8 11.7 8.4 70 2.7 E 9 15 5 8 1025.0 1024.9 0.0
24/09:30pm 15.0 11.7 8.0 63 3.5 E 15 24 8 13 1024.9 1024.8 0.0
24/09:00pm 15.0 11.3 8.0 63 3.5 ESE 17 26 9 14 1024.7 1024.6 0.0

Other Formats:

Comma delimited format used in spreadsheet applications
http://www.bom.gov.au/fwo/IDW60801/IDW60801.94638.axf

JavaScript Object Notation format (JSON) in row-major order
http://www.bom.gov.au/fwo/IDW60801/IDW60801.94638.json